createdAt,value
2023-02-16T00:00:33.854Z,8.65
2023-02-16T00:03:00.469Z,8.63
2023-02-16T00:05:32.576Z,8.93
2023-02-16T00:08:00.134Z,8.82
2023-02-16T00:10:30.885Z,8.18
2023-02-16T00:13:16.127Z,8.35
2023-02-16T00:15:43.078Z,8.77
2023-02-16T00:18:20.929Z,8.88
2023-02-16T00:20:49.142Z,7.75
2023-02-16T00:23:15.780Z,8.57
2023-02-16T00:25:42.581Z,8.63
2023-02-16T00:28:15.972Z,7.78
2023-02-16T00:30:42.777Z,8.20
2023-02-16T00:33:20.461Z,7.85
2023-02-16T00:35:48.153Z,7.85
2023-02-16T00:38:14.839Z,7.90
2023-02-16T00:40:42.401Z,8.70
2023-02-16T00:43:30.691Z,7.63
2023-02-16T00:45:57.635Z,7.85
2023-02-16T00:48:24.880Z,6.95
2023-02-16T00:50:51.562Z,7.15
2023-02-16T00:53:18.213Z,7.57
2023-02-16T00:55:45.304Z,7.82
2023-02-16T00:58:15.216Z,7.35
2023-02-16T01:00:46.473Z,7.60
2023-02-16T01:03:16.981Z,7.25
2023-02-16T01:05:43.900Z,6.95
2023-02-16T01:08:34.574Z,6.63
2023-02-16T01:11:07.570Z,6.65
2023-02-16T01:13:43.743Z,6.90
2023-02-16T01:16:18.611Z,6.95
2023-02-16T01:18:45.657Z,6.85
2023-02-16T01:21:12.357Z,6.88
2023-02-16T01:23:39.595Z,6.95
2023-02-16T01:26:11.856Z,6.68
2023-02-16T01:28:38.515Z,5.95
2023-02-16T01:31:06.990Z,6.20
2023-02-16T01:33:34.112Z,6.47
2023-02-16T01:36:00.821Z,6.53
2023-02-16T01:38:29.285Z,6.18
2023-02-16T01:41:24.711Z,6.38
2023-02-16T01:43:58.510Z,6.88
2023-02-16T01:46:51.119Z,6.30
2023-02-16T01:49:20.520Z,6.57
2023-02-16T01:52:03.679Z,6.90
2023-02-16T01:54:47.563Z,6.55
2023-02-16T01:57:48.347Z,6.97
2023-02-16T02:00:21.560Z,6.78
2023-02-16T02:02:55.543Z,5.95
2023-02-16T02:08:21.535Z,6.68
2023-02-16T02:11:03.414Z,6.65
2023-02-16T02:13:38.177Z,5.95
2023-02-16T02:16:06.145Z,6.22
2023-02-16T02:18:33.020Z,7.25
2023-02-16T02:21:28.549Z,7.03
2023-02-16T02:24:21.689Z,6.50
2023-02-16T02:27:29.925Z,5.93
2023-02-16T02:30:29.199Z,6.55
2023-02-16T02:33:01.861Z,5.88
2023-02-16T02:35:46.505Z,5.93
2023-02-16T02:38:24.163Z,7.07
2023-02-16T02:41:08.509Z,6.78
2023-02-16T02:43:38.232Z,6.50
2023-02-16T02:46:08.028Z,6.18
2023-02-16T02:48:35.274Z,6.30
2023-02-16T02:51:30.251Z,5.85
2023-02-16T02:54:18.224Z,6.00
2023-02-16T02:57:23.568Z,5.88
2023-02-16T03:00:18.993Z,5.53
2023-02-16T03:02:49.512Z,5.18
2023-02-16T03:05:18.312Z,5.65
2023-02-16T03:07:48.133Z,5.68
2023-02-16T03:10:39.456Z,6.68
2023-02-16T03:13:11.921Z,5.53
2023-02-16T03:15:39.868Z,6.00
2023-02-16T03:18:27.188Z,5.18
2023-02-16T03:21:12.887Z,5.07
2023-02-16T03:23:59.549Z,5.10
2023-02-16T03:26:46.479Z,4.82
2023-02-16T03:29:18.403Z,4.93
2023-02-16T03:31:46.844Z,4.38
2023-02-16T03:34:14.626Z,5.20
2023-02-16T03:36:44.660Z,4.30
2023-02-16T03:39:11.340Z,4.90
2023-02-16T03:41:46.139Z,4.50
2023-02-16T03:44:12.771Z,4.35
2023-02-16T03:46:39.607Z,4.88
2023-02-16T03:49:06.227Z,4.40
2023-02-16T03:51:32.787Z,4.95
2023-02-16T03:53:59.484Z,4.38
2023-02-16T03:56:26.070Z,4.20
2023-02-16T03:58:52.761Z,5.00
2023-02-16T04:01:19.347Z,4.30
2023-02-16T04:03:45.987Z,4.90
2023-02-16T04:06:12.754Z,4.47
2023-02-16T04:08:39.297Z,4.75
2023-02-16T04:11:24.362Z,4.85
2023-02-16T04:13:50.961Z,4.00
2023-02-16T04:16:17.581Z,4.40
2023-02-16T04:18:44.456Z,4.32
2023-02-16T04:21:11.080Z,4.40
2023-02-16T04:23:37.884Z,4.38
2023-02-16T04:26:04.598Z,4.43
2023-02-16T04:28:31.177Z,4.50
2023-02-16T04:30:57.962Z,4.32
2023-02-16T04:33:24.618Z,4.07
2023-02-16T04:35:51.185Z,4.15
2023-02-16T04:38:17.785Z,4.18
2023-02-16T04:40:44.401Z,4.07
2023-02-16T04:43:10.948Z,4.13
2023-02-16T04:45:40.715Z,4.05
2023-02-16T04:48:07.301Z,3.80
2023-02-16T04:50:33.837Z,4.32
2023-02-16T04:53:00.493Z,3.85
2023-02-16T04:55:27.128Z,3.97
2023-02-16T04:57:53.681Z,4.03
2023-02-16T05:00:20.673Z,4.25
2023-02-16T05:02:47.707Z,3.65
2023-02-16T05:05:14.512Z,3.70
2023-02-16T05:07:41.212Z,3.90
2023-02-16T05:10:08.298Z,4.32
2023-02-16T05:12:54.004Z,3.40
2023-02-16T05:15:20.711Z,3.67
2023-02-16T05:17:47.224Z,4.53
2023-02-16T05:20:13.844Z,3.58
2023-02-16T05:22:40.417Z,3.95
2023-02-16T05:25:07.501Z,4.18
2023-02-16T05:27:34.169Z,4.28
2023-02-16T05:30:00.821Z,3.72
2023-02-16T05:32:27.459Z,3.95
2023-02-16T05:34:54.073Z,3.78
2023-02-16T05:37:20.666Z,3.85
2023-02-16T05:39:47.454Z,3.63
2023-02-16T05:42:14.181Z,3.65
2023-02-16T05:44:40.777Z,4.10
2023-02-16T05:47:07.654Z,4.63
2023-02-16T05:49:34.278Z,4.00
2023-02-16T05:52:00.892Z,4.43
2023-02-16T05:54:28.151Z,4.43
2023-02-16T05:56:54.827Z,4.00
2023-02-16T05:59:21.705Z,4.10
2023-02-16T06:01:51.548Z,4.55
2023-02-16T06:04:20.462Z,4.55
2023-02-16T06:06:47.191Z,4.03
2023-02-16T06:09:13.807Z,3.78
2023-02-16T06:11:40.494Z,4.40
2023-02-16T06:14:13.181Z,4.13
2023-02-16T06:16:42.537Z,4.13
2023-02-16T06:19:09.597Z,4.60
2023-02-16T06:21:37.116Z,4.90
2023-02-16T06:24:04.583Z,4.13
2023-02-16T06:26:31.419Z,4.85
2023-02-16T06:28:58.033Z,4.30
2023-02-16T06:31:25.398Z,4.63
2023-02-16T06:33:52.714Z,4.03
2023-02-16T06:36:19.751Z,4.32
2023-02-16T06:38:46.590Z,4.22
2023-02-16T06:41:13.340Z,4.95
2023-02-16T06:43:39.975Z,3.90
2023-02-16T06:46:06.696Z,4.30
2023-02-16T06:48:33.498Z,4.60
2023-02-16T06:51:00.052Z,5.13
2023-02-16T06:53:26.678Z,4.53
2023-02-16T06:55:53.277Z,4.88
2023-02-16T06:58:19.936Z,5.00
2023-02-16T07:00:46.609Z,5.50
2023-02-16T07:03:13.353Z,5.07
2023-02-16T07:05:40.060Z,4.47
2023-02-16T07:08:06.594Z,4.05
2023-02-16T07:10:48.690Z,4.63
2023-02-16T07:13:16.412Z,5.00
2023-02-16T07:15:44.096Z,4.50
2023-02-16T07:18:10.680Z,5.38
2023-02-16T07:20:38.040Z,5.18
2023-02-16T07:23:04.973Z,5.45
2023-02-16T07:25:31.553Z,5.28
2023-02-16T07:27:58.140Z,5.25
2023-02-16T07:30:24.863Z,5.80
2023-02-16T07:32:51.437Z,5.70
2023-02-16T07:35:17.993Z,5.28
2023-02-16T07:37:44.672Z,6.28
2023-02-16T07:40:11.893Z,6.35
2023-02-16T07:42:39.030Z,5.53
2023-02-16T07:45:05.846Z,5.68
2023-02-16T07:47:32.412Z,6.20
2023-02-16T07:49:58.940Z,5.53
2023-02-16T07:52:30.898Z,5.90
2023-02-16T07:54:58.985Z,6.20
2023-02-16T07:57:26.652Z,7.05
2023-02-16T07:59:53.841Z,6.22
2023-02-16T08:02:21.808Z,5.65
2023-02-16T08:04:49.070Z,6.38
2023-02-16T08:07:17.559Z,6.35
2023-02-16T08:09:44.575Z,6.07
2023-02-16T08:12:13.393Z,5.70
2023-02-16T08:14:40.353Z,4.68
2023-02-16T08:17:07.761Z,5.10
2023-02-16T08:19:35.103Z,4.80
2023-02-16T08:22:04.989Z,5.35
2023-02-16T08:24:31.867Z,4.90
2023-02-16T08:26:58.448Z,5.20
2023-02-16T08:29:25.256Z,4.65
2023-02-16T08:31:53.442Z,4.75
2023-02-16T08:34:20.724Z,5.50
2023-02-16T08:36:51.589Z,4.82
2023-02-16T08:39:20.956Z,5.47
2023-02-16T08:41:49.497Z,5.22
2023-02-16T08:44:17.407Z,5.03
2023-02-16T08:46:45.930Z,5.70
2023-02-16T08:49:13.167Z,6.20
2023-02-16T08:51:45.503Z,5.05
2023-02-16T08:54:19.564Z,5.40
2023-02-16T08:56:48.109Z,5.32
2023-02-16T08:59:16.384Z,5.68
2023-02-16T09:01:43.437Z,5.43
2023-02-16T09:04:10.025Z,5.53
2023-02-16T09:06:38.572Z,5.18
2023-02-16T09:09:05.853Z,6.07
2023-02-16T09:11:32.934Z,5.70
2023-02-16T09:13:59.710Z,5.82
2023-02-16T09:16:29.290Z,5.90
2023-02-16T09:18:57.413Z,5.60
2023-02-16T09:21:25.807Z,5.53
2023-02-16T09:23:55.830Z,5.53
2023-02-16T09:26:23.594Z,5.78
2023-02-16T09:28:50.904Z,5.78
2023-02-16T09:31:28.858Z,6.75
2023-02-16T09:34:01.364Z,6.22
2023-02-16T09:36:28.798Z,5.57
2023-02-16T09:38:56.232Z,5.00
2023-02-16T09:41:41.121Z,5.47
2023-02-16T09:44:22.885Z,5.70
2023-02-16T09:46:50.492Z,5.60
2023-02-16T09:49:35.054Z,5.32
2023-02-16T09:52:32.857Z,6.03
2023-02-16T09:55:00.953Z,5.18
2023-02-16T09:57:31.154Z,5.50
2023-02-16T10:00:34.690Z,5.60
2023-02-16T10:03:19.180Z,5.68
2023-02-16T10:06:05.790Z,5.80
2023-02-16T10:08:40.191Z,5.28
2023-02-16T10:11:46.574Z,4.57
2023-02-16T10:14:31.661Z,4.93
2023-02-16T10:17:15.336Z,4.32
2023-02-16T10:20:00.654Z,3.47
2023-02-16T10:23:01.058Z,3.67
2023-02-16T10:25:42.189Z,3.63
2023-02-16T10:28:20.766Z,4.32
2023-02-16T10:31:17.937Z,4.10
2023-02-16T10:33:51.694Z,4.10
2023-02-16T10:36:21.876Z,4.80
2023-02-16T10:39:01.478Z,4.95
2023-02-16T10:41:37.703Z,4.50
2023-02-16T10:44:15.439Z,4.40
2023-02-16T10:46:47.954Z,4.88
2023-02-16T10:49:15.838Z,4.60
2023-02-16T10:51:49.016Z,4.55
2023-02-16T10:54:27.400Z,3.60
2023-02-16T10:56:57.363Z,4.90
2023-02-16T10:59:27.338Z,4.97
2023-02-16T11:01:58.367Z,4.43
2023-02-16T11:04:34.129Z,5.43
2023-02-16T11:07:08.542Z,4.82
2023-02-16T11:09:36.309Z,5.13
2023-02-16T11:12:15.466Z,5.22
2023-02-16T11:14:49.298Z,5.22
2023-02-16T11:19:53.977Z,5.05
2023-02-16T11:22:39.671Z,5.18
2023-02-16T11:25:18.277Z,5.35
2023-02-16T11:28:00.033Z,5.25
2023-02-16T11:30:33.207Z,5.40
2023-02-16T11:33:02.731Z,5.03
2023-02-16T11:35:31.858Z,5.18
2023-02-16T11:37:59.663Z,5.53
2023-02-16T11:40:33.429Z,5.47
2023-02-16T11:43:02.148Z,5.05
2023-02-16T11:45:34.619Z,5.45
2023-02-16T11:48:05.952Z,4.97
2023-02-16T11:50:38.647Z,5.03
2023-02-16T11:53:14.886Z,5.00
2023-02-16T11:55:46.849Z,4.97
2023-02-16T11:58:17.868Z,5.22
2023-02-16T12:01:02.929Z,5.20
2023-02-16T12:03:31.448Z,4.50
2023-02-16T12:05:58.293Z,4.15
2023-02-16T12:08:51.514Z,5.70
2023-02-16T12:11:18.059Z,5.00
2023-02-16T12:13:57.475Z,5.07
2023-02-16T12:17:00.857Z,5.03
2023-02-16T12:19:49.229Z,5.20
2023-02-16T12:22:22.047Z,4.65
2023-02-16T12:25:00.637Z,4.75
2023-02-16T12:27:45.320Z,4.53
2023-02-16T12:30:12.097Z,5.10
2023-02-16T12:33:15.349Z,5.05
2023-02-16T12:36:05.234Z,4.10
2023-02-16T12:38:46.482Z,3.95
2023-02-16T12:41:19.231Z,3.90
2023-02-16T12:43:50.461Z,4.03
2023-02-16T12:46:29.797Z,4.05
2023-02-16T12:49:42.893Z,4.05
2023-02-16T12:52:22.547Z,3.70
2023-02-16T12:54:55.446Z,3.95
2023-02-16T12:57:26.341Z,4.70
2023-02-16T13:00:02.616Z,3.78
2023-02-16T13:02:35.572Z,3.88
2023-02-16T13:05:09.062Z,4.07
2023-02-16T13:07:37.438Z,3.92
2023-02-16T13:10:24.473Z,4.50
2023-02-16T13:12:58.147Z,3.05
2023-02-16T13:15:39.060Z,3.30
2023-02-16T13:18:16.559Z,3.42
2023-02-16T13:20:49.558Z,4.32
2023-02-16T13:23:43.879Z,3.67
2023-02-16T13:26:42.856Z,4.15
2023-02-16T13:29:23.648Z,3.55
2023-02-16T13:31:59.219Z,4.40
2023-02-16T13:34:38.375Z,3.55
2023-02-16T13:37:16.835Z,3.33
2023-02-16T13:40:08.164Z,3.22
2023-02-16T13:43:03.423Z,3.67
2023-02-16T13:45:38.837Z,2.88
2023-02-16T13:48:14.974Z,3.03
2023-02-16T13:50:41.634Z,2.60
2023-02-16T13:53:13.578Z,2.95
2023-02-16T13:55:40.278Z,3.17
2023-02-16T13:58:13.506Z,2.63
2023-02-16T14:00:48.052Z,3.03
2023-02-16T14:03:17.715Z,2.85
2023-02-16T14:05:47.152Z,3.33
2023-02-16T14:08:24.042Z,2.78
2023-02-16T14:10:57.436Z,2.85
2023-02-16T14:13:33.950Z,3.10
2023-02-16T14:16:14.661Z,2.40
2023-02-16T14:19:00.843Z,2.72
2023-02-16T14:21:43.046Z,2.75
2023-02-16T14:24:33.465Z,2.78
2023-02-16T14:27:05.964Z,2.70
2023-02-16T14:29:35.423Z,2.75
2023-02-16T14:32:28.504Z,3.33
2023-02-16T14:35:20.872Z,2.25
2023-02-16T14:37:55.708Z,2.85
2023-02-16T14:41:02.798Z,2.67
2023-02-16T14:43:36.469Z,3.50
2023-02-16T14:46:30.733Z,3.22
2023-02-16T14:49:08.705Z,2.95
2023-02-16T14:51:51.675Z,2.90
2023-02-16T14:54:42.773Z,3.05
2023-02-16T14:57:31.297Z,3.70
2023-02-16T15:00:19.805Z,2.95
2023-02-16T15:03:02.024Z,2.88
2023-02-16T15:20:44.140Z,3.15
2023-02-16T15:23:24.060Z,3.30
2023-02-16T16:31:19.267Z,3.15
2023-02-16T16:34:09.957Z,3.53
2023-02-16T16:36:38.774Z,3.25
2023-02-16T16:39:17.232Z,3.70
2023-02-16T16:42:16.769Z,3.55
2023-02-16T16:45:26.768Z,2.88
2023-02-16T16:48:00.609Z,3.45
2023-02-16T16:53:00.087Z,2.53
2023-02-16T16:55:32.832Z,3.42
2023-02-16T16:58:06.391Z,3.40
2023-02-16T17:00:36.260Z,3.88
2023-02-16T17:03:05.976Z,4.60
2023-02-16T17:05:33.919Z,4.03
2023-02-16T17:08:00.566Z,4.30
2023-02-16T17:10:27.440Z,4.10
2023-02-16T17:12:57.494Z,3.75
2023-02-16T17:15:31.688Z,4.15
2023-02-16T17:17:59.021Z,4.53
2023-02-16T17:20:25.901Z,4.50
2023-02-16T17:22:52.620Z,4.93
2023-02-16T17:25:19.599Z,4.60
2023-02-16T17:27:46.250Z,4.10
2023-02-16T17:30:13.394Z,4.68
2023-02-16T17:32:40.186Z,4.85
2023-02-16T17:35:07.210Z,4.53
2023-02-16T17:37:35.634Z,5.20
2023-02-16T17:40:04.029Z,5.10
2023-02-16T17:42:30.623Z,6.38
2023-02-16T17:44:57.213Z,6.78
2023-02-16T17:47:23.818Z,7.30
2023-02-16T17:49:50.364Z,8.02
2023-02-16T17:52:17.101Z,9.27
2023-02-16T17:54:43.657Z,8.57
2023-02-16T17:57:10.516Z,8.07
2023-02-16T17:59:37.287Z,8.15
2023-02-16T18:02:03.940Z,6.50
2023-02-16T18:04:30.600Z,8.43
2023-02-16T18:06:57.911Z,6.70
2023-02-16T18:09:24.610Z,6.10
2023-02-16T18:11:51.608Z,5.47
2023-02-16T18:14:18.223Z,6.47
2023-02-16T18:16:44.935Z,6.15
2023-02-16T18:19:15.019Z,5.78
2023-02-16T18:21:41.630Z,5.00
2023-02-16T18:24:08.358Z,5.20
2023-02-16T18:26:34.962Z,5.00
2023-02-16T18:29:01.594Z,4.60
2023-02-16T18:31:28.198Z,4.18
2023-02-16T18:33:54.852Z,4.82
2023-02-16T18:36:21.424Z,4.22
2023-02-16T18:38:48.080Z,4.68
2023-02-16T18:41:14.787Z,4.97
2023-02-16T18:43:41.360Z,4.28
2023-02-16T18:46:09.455Z,4.22
2023-02-16T18:48:36.851Z,3.58
2023-02-16T18:51:07.521Z,4.63
2023-02-16T18:53:37.610Z,4.18
2023-02-16T18:56:09.596Z,4.32
2023-02-16T18:58:36.478Z,3.60
2023-02-16T19:01:24.781Z,3.90
2023-02-16T19:03:51.364Z,4.47
2023-02-16T19:06:18.000Z,4.18
2023-02-16T19:08:45.855Z,3.80
2023-02-16T19:11:12.694Z,4.13
2023-02-16T19:13:39.558Z,4.70
2023-02-16T19:16:06.784Z,4.13
2023-02-16T19:18:33.580Z,4.03
2023-02-16T19:21:05.010Z,4.57
2023-02-16T19:23:31.586Z,4.43
2023-02-16T19:25:58.224Z,3.80
2023-02-16T19:28:24.904Z,5.05
2023-02-16T19:30:51.478Z,4.65
2023-02-16T19:33:18.143Z,5.78
2023-02-16T19:35:44.774Z,5.72
2023-02-16T19:38:11.410Z,5.30
2023-02-16T19:40:39.066Z,5.30
2023-02-16T19:43:05.632Z,5.13
2023-02-16T19:45:32.241Z,5.60
2023-02-16T19:47:58.847Z,5.57
2023-02-16T19:50:25.471Z,4.72
2023-02-16T19:52:52.070Z,4.90
2023-02-16T19:55:18.681Z,4.43
2023-02-16T19:57:45.266Z,5.05
2023-02-16T20:00:14.105Z,4.65
2023-02-16T20:02:40.715Z,5.15
2023-02-16T20:05:09.690Z,4.15
2023-02-16T20:07:36.580Z,4.25
2023-02-16T20:10:03.499Z,4.10
2023-02-16T20:12:30.139Z,4.18
2023-02-16T20:14:57.708Z,3.85
2023-02-16T20:17:25.898Z,4.45
2023-02-16T20:19:52.436Z,4.35
2023-02-16T20:22:19.108Z,4.57
2023-02-16T20:24:46.919Z,4.82
2023-02-16T20:27:14.501Z,4.45
2023-02-16T20:29:41.219Z,4.38
2023-02-16T20:32:07.918Z,4.68
2023-02-16T20:34:34.582Z,4.53
2023-02-16T20:37:01.226Z,4.10
2023-02-16T20:39:28.026Z,4.60
2023-02-16T20:41:54.700Z,4.40
2023-02-16T20:44:22.582Z,4.38
2023-02-16T20:46:49.574Z,3.95
2023-02-16T20:49:16.427Z,4.10
2023-02-16T20:51:43.253Z,4.32
2023-02-16T20:54:12.033Z,4.55
2023-02-16T20:56:38.797Z,4.65
2023-02-16T20:59:05.506Z,4.43
2023-02-16T21:01:38.532Z,4.70
2023-02-16T21:04:06.261Z,5.30
2023-02-16T21:06:34.190Z,5.20
2023-02-16T21:09:00.784Z,5.78
2023-02-16T21:11:27.992Z,5.55
2023-02-16T21:13:54.854Z,5.78
2023-02-16T21:16:21.863Z,5.65
2023-02-16T21:18:48.625Z,5.47
2023-02-16T21:21:18.085Z,5.55
2023-02-16T21:23:48.315Z,4.25
2023-02-16T21:26:16.244Z,5.07
2023-02-16T21:28:43.041Z,5.03
2023-02-16T21:31:18.804Z,5.15
2023-02-16T21:33:45.959Z,5.47
2023-02-16T21:36:16.573Z,5.90
2023-02-16T21:38:43.555Z,5.20
2023-02-16T21:41:25.567Z,4.80
2023-02-16T21:43:58.556Z,5.20
2023-02-16T21:46:26.348Z,4.63
2023-02-16T21:48:53.236Z,4.65
2023-02-16T21:51:24.151Z,5.00
2023-02-16T21:53:50.984Z,4.82
2023-02-16T21:56:46.820Z,5.15
2023-02-16T21:59:15.601Z,4.55
2023-02-16T22:01:45.814Z,4.47
2023-02-16T22:04:15.319Z,4.90
2023-02-16T22:06:45.505Z,3.75
2023-02-16T22:09:15.000Z,4.18
2023-02-16T22:11:41.752Z,4.47
2023-02-16T22:14:08.541Z,4.53
2023-02-16T22:16:37.177Z,4.28
2023-02-16T22:19:09.108Z,4.57
2023-02-16T22:21:37.702Z,4.88
2023-02-16T22:24:05.508Z,4.80
2023-02-16T22:26:33.849Z,4.80
2023-02-16T22:29:02.886Z,4.43
2023-02-16T22:31:29.684Z,4.38
2023-02-16T22:34:01.899Z,4.22
2023-02-16T22:36:28.767Z,4.78
2023-02-16T22:38:55.769Z,4.82
2023-02-16T22:41:23.347Z,4.40
2023-02-16T22:43:55.109Z,4.47
2023-02-16T22:46:23.285Z,4.75
2023-02-16T22:48:49.891Z,4.55
2023-02-16T22:51:17.889Z,4.20
2023-02-16T22:53:44.452Z,4.57
2023-02-16T22:56:14.893Z,4.93
2023-02-16T22:58:41.684Z,5.20
2023-02-16T23:01:13.595Z,4.60
2023-02-16T23:03:40.581Z,5.03
2023-02-16T23:06:37.090Z,4.38
2023-02-16T23:09:07.914Z,4.63
2023-02-16T23:11:35.864Z,4.97
2023-02-16T23:14:02.526Z,5.15
2023-02-16T23:16:29.285Z,5.18
2023-02-16T23:18:57.376Z,5.22
2023-02-16T23:21:27.658Z,4.93
2023-02-16T23:23:54.976Z,5.22
2023-02-16T23:26:24.040Z,4.97
2023-02-16T23:28:53.170Z,5.10
2023-02-16T23:31:20.868Z,5.40
2023-02-16T23:33:47.938Z,5.40
2023-02-16T23:36:14.583Z,5.57
2023-02-16T23:38:41.146Z,5.68
2023-02-16T23:41:12.687Z,6.05
2023-02-16T23:43:39.282Z,5.55
2023-02-16T23:46:06.450Z,5.38
2023-02-16T23:48:34.010Z,5.00
2023-02-16T23:51:00.609Z,5.50
2023-02-16T23:53:28.599Z,5.43
2023-02-16T23:56:00.987Z,5.20
2023-02-16T23:58:28.810Z,5.07
